Hamlet, IN (46532)

12:43 PM CST en Marzo 05, 2015 (GMT -0600)
East of Town | Change Station
CLOSE
Current Station
Estación meteorológica personal
Location: North Judson, IN
Altura: 700 ft
Estaciones meteorológicas cercanas

Alt 700 ft 41.24 °N, 86.72 °W | Updated 2 minutes ago

Nublado
Nublado
20.4 ° F
Sensación térmica 11 ° F
N
8.0
Viento Variable Viento desde NNO
Gusts 8.0 mph

Hoy
Alta -- | Baja -- ° F
--% Posibilidad de precipitaciones
Ayer
Alta -- | Baja -- ° F
Precip. -- pul
6:14 AM 5:41 PM
Luna llena, 100% visible
Presión 30.44 pul
Visibilidad 10.0 Millas
Nubes Nubes dispersas 3100 ft
Vientos helados 11 ° F
Punto de rocío 12 ° F
Humedad 69%
Precipitaciones pul
Espesor de la nieve No disponible.
UV 5 de una escala de 12
Polen .40 de una escala de 12
Calidad del aire No disponible.
Flu Activity No disponible.
METAR KPPO 051815Z AUTO 31008KT 10SM SCT031 M06/M14 A3044 RMK AO2 T10641136

More Conditions Fewer Conditions

Presión 30.44 pul
Visibilidad 10.0 Millas
Nubes Nubes dispersas 3100 ft
Vientos helados 11 ° F
Punto de rocío 12 ° F
Humedad 69%
Precipitaciones pul
Espesor de la nieve No disponible.
UV 5 de una escala de 12
Polen .40 de una escala de 12
Calidad del aire No disponible.
Flu Activity No disponible.
METAR KPPO 051815Z AUTO 31008KT 10SM SCT031 M06/M14 A3044 RMK AO2 T10641136

More Conditions Fewer Conditions

10-Day Weather Forecast

Almanac

Astronomía

Mar. 05, 2015 Salida Puesta
Hora real
Crepúsculo civil
Crepúsculo náutico
Crepúsculo astronómico
Luna
Horas de luz
Horas de luz
Tomorrow will be .
, % of the Moon is Illuminated

Extremos de hoy

Máximos del estado Bajos del estado

Community

WunderPhotos

Upload Photos

1,802,905 ¡fotos cargadas!

WunderBlogs® & News

Nearby

Calidad del aire

  Calidad del aire Índice AQ Contaminante
Not available.

Grosos de nieve

Estación Profundido Altura

Actividad de terremotos

Ciudad Distance Mag. Tiempo y dato
Magnitud mínima muestra es 2,5.

Temperaturas de aguas costeras

Lugar Temperatura

Estaciones meteorológicas cercanas